sensor_id;sensor_type;location;lat;lon;timestamp;P1;durP1;ratioP1;P2;durP2;ratioP2
10333;SDS011;5212;47.892;16.406;2023-08-30T00:01:38;0.50;;;0.50;;
10333;SDS011;5212;47.892;16.406;2023-08-30T00:04:05;0.60;;;0.60;;
10333;SDS011;5212;47.892;16.406;2023-08-30T00:06:31;0.63;;;0.50;;
10333;SDS011;5212;47.892;16.406;2023-08-30T00:08:57;0.70;;;0.60;;
10333;SDS011;5212;47.892;16.406;2023-08-30T00:11:23;0.57;;;0.50;;
10333;SDS011;5212;47.892;16.406;2023-08-30T00:13:50;0.60;;;0.50;;
10333;SDS011;5212;47.892;16.406;2023-08-30T00:16:16;0.87;;;0.53;;
10333;SDS011;5212;47.892;16.406;2023-08-30T00:18:42;0.60;;;0.50;;
10333;SDS011;5212;47.892;16.406;2023-08-30T00:21:09;0.50;;;0.40;;
10333;SDS011;5212;47.892;16.406;2023-08-30T00:23:35;0.63;;;0.53;;
10333;SDS011;5212;47.892;16.406;2023-08-30T00:26:01;0.53;;;0.53;;
10333;SDS011;5212;47.892;16.406;2023-08-30T00:28:28;0.60;;;0.53;;
10333;SDS011;5212;47.892;16.406;2023-08-30T00:30:55;0.70;;;0.60;;
10333;SDS011;5212;47.892;16.406;2023-08-30T00:33:21;0.90;;;0.60;;
10333;SDS011;5212;47.892;16.406;2023-08-30T00:35:54;0.90;;;0.60;;
10333;SDS011;5212;47.892;16.406;2023-08-30T00:38:21;0.83;;;0.60;;
10333;SDS011;5212;47.892;16.406;2023-08-30T00:40:47;0.53;;;0.50;;
10333;SDS011;5212;47.892;16.406;2023-08-30T00:43:13;0.60;;;0.40;;
10333;SDS011;5212;47.892;16.406;2023-08-30T00:45:39;0.53;;;0.50;;
10333;SDS011;5212;47.892;16.406;2023-08-30T00:48:06;0.40;;;0.30;;
10333;SDS011;5212;47.892;16.406;2023-08-30T00:50:32;0.67;;;0.60;;
10333;SDS011;5212;47.892;16.406;2023-08-30T00:52:58;0.60;;;0.50;;
10333;SDS011;5212;47.892;16.406;2023-08-30T00:55:24;1.07;;;0.67;;
10333;SDS011;5212;47.892;16.406;2023-08-30T00:57:50;0.60;;;0.40;;
10333;SDS011;5212;47.892;16.406;2023-08-30T01:00:16;0.73;;;0.60;;
10333;SDS011;5212;47.892;16.406;2023-08-30T01:02:42;0.60;;;0.50;;
10333;SDS011;5212;47.892;16.406;2023-08-30T01:05:09;0.63;;;0.50;;
10333;SDS011;5212;47.892;16.406;2023-08-30T01:07:35;0.50;;;0.50;;
10333;SDS011;5212;47.892;16.406;2023-08-30T01:10:01;1.00;;;0.50;;
10333;SDS011;5212;47.892;16.406;2023-08-30T01:12:29;0.53;;;0.50;;
10333;SDS011;5212;47.892;16.406;2023-08-30T01:15:01;0.70;;;0.60;;
10333;SDS011;5212;47.892;16.406;2023-08-30T01:17:35;1.23;;;0.60;;
10333;SDS011;5212;47.892;16.406;2023-08-30T01:20:03;0.63;;;0.60;;
10333;SDS011;5212;47.892;16.406;2023-08-30T01:22:37;0.70;;;0.60;;
10333;SDS011;5212;47.892;16.406;2023-08-30T01:25:12;1.00;;;0.60;;
10333;SDS011;5212;47.892;16.406;2023-08-30T01:27:47;0.60;;;0.60;;
10333;SDS011;5212;47.892;16.406;2023-08-30T01:30:14;0.60;;;0.53;;
10333;SDS011;5212;47.892;16.406;2023-08-30T01:32:40;0.70;;;0.60;;
10333;SDS011;5212;47.892;16.406;2023-08-30T01:35:08;0.80;;;0.50;;
10333;SDS011;5212;47.892;16.406;2023-08-30T01:37:34;1.07;;;0.73;;
10333;SDS011;5212;47.892;16.406;2023-08-30T01:40:01;1.40;;;0.70;;
10333;SDS011;5212;47.892;16.406;2023-08-30T01:42:29;0.73;;;0.53;;
10333;SDS011;5212;47.892;16.406;2023-08-30T01:44:56;1.10;;;0.77;;
10333;SDS011;5212;47.892;16.406;2023-08-30T01:47:25;1.70;;;0.80;;
10333;SDS011;5212;47.892;16.406;2023-08-30T01:49:53;0.90;;;0.70;;
10333;SDS011;5212;47.892;16.406;2023-08-30T01:52:20;0.80;;;0.60;;
10333;SDS011;5212;47.892;16.406;2023-08-30T01:54:46;0.60;;;0.60;;
10333;SDS011;5212;47.892;16.406;2023-08-30T01:57:13;0.80;;;0.60;;
10333;SDS011;5212;47.892;16.406;2023-08-30T01:59:39;0.90;;;0.80;;
10333;SDS011;5212;47.892;16.406;2023-08-30T02:02:06;2.03;;;0.70;;
10333;SDS011;5212;47.892;16.406;2023-08-30T02:04:32;0.93;;;0.70;;
10333;SDS011;5212;47.892;16.406;2023-08-30T02:07:00;0.70;;;0.50;;
10333;SDS011;5212;47.892;16.406;2023-08-30T02:09:28;0.80;;;0.60;;
10333;SDS011;5212;47.892;16.406;2023-08-30T02:11:57;0.57;;;0.50;;
10333;SDS011;5212;47.892;16.406;2023-08-30T02:14:26;0.80;;;0.70;;
10333;SDS011;5212;47.892;16.406;2023-08-30T02:16:52;0.70;;;0.70;;
10333;SDS011;5212;47.892;16.406;2023-08-30T02:19:21;0.63;;;0.60;;
10333;SDS011;5212;47.892;16.406;2023-08-30T02:21:47;1.13;;;0.70;;
10333;SDS011;5212;47.892;16.406;2023-08-30T02:24:14;0.80;;;0.63;;
10333;SDS011;5212;47.892;16.406;2023-08-30T02:26:40;0.70;;;0.63;;
10333;SDS011;5212;47.892;16.406;2023-08-30T02:29:06;1.07;;;0.70;;
10333;SDS011;5212;47.892;16.406;2023-08-30T02:31:33;0.80;;;0.70;;
10333;SDS011;5212;47.892;16.406;2023-08-30T02:33:59;1.10;;;0.80;;
10333;SDS011;5212;47.892;16.406;2023-08-30T02:36:26;1.43;;;0.80;;
10333;SDS011;5212;47.892;16.406;2023-08-30T02:38:52;1.30;;;0.80;;
10333;SDS011;5212;47.892;16.406;2023-08-30T02:41:18;0.90;;;0.80;;
10333;SDS011;5212;47.892;16.406;2023-08-30T02:43:44;0.97;;;0.90;;
10333;SDS011;5212;47.892;16.406;2023-08-30T02:46:10;1.00;;;0.70;;
10333;SDS011;5212;47.892;16.406;2023-08-30T02:48:35;1.37;;;0.97;;
10333;SDS011;5212;47.892;16.406;2023-08-30T02:51:02;1.40;;;1.10;;
10333;SDS011;5212;47.892;16.406;2023-08-30T02:53:28;1.10;;;0.97;;
10333;SDS011;5212;47.892;16.406;2023-08-30T02:55:54;1.00;;;0.90;;
10333;SDS011;5212;47.892;16.406;2023-08-30T02:58:21;1.13;;;0.90;;
10333;SDS011;5212;47.892;16.406;2023-08-30T03:00:47;1.20;;;0.90;;
10333;SDS011;5212;47.892;16.406;2023-08-30T03:03:13;1.00;;;0.80;;
10333;SDS011;5212;47.892;16.406;2023-08-30T03:05:39;1.10;;;0.80;;
10333;SDS011;5212;47.892;16.406;2023-08-30T03:08:05;1.40;;;0.90;;
10333;SDS011;5212;47.892;16.406;2023-08-30T03:10:32;0.97;;;0.80;;
10333;SDS011;5212;47.892;16.406;2023-08-30T03:12:58;1.00;;;0.90;;
10333;SDS011;5212;47.892;16.406;2023-08-30T03:15:24;1.10;;;0.80;;
10333;SDS011;5212;47.892;16.406;2023-08-30T03:17:50;1.00;;;0.80;;
10333;SDS011;5212;47.892;16.406;2023-08-30T03:20:16;1.37;;;1.03;;
10333;SDS011;5212;47.892;16.406;2023-08-30T03:22:42;0.70;;;0.60;;
10333;SDS011;5212;47.892;16.406;2023-08-30T03:25:08;1.13;;;0.83;;
10333;SDS011;5212;47.892;16.406;2023-08-30T03:27:35;0.90;;;0.70;;
10333;SDS011;5212;47.892;16.406;2023-08-30T03:30:01;0.77;;;0.70;;
10333;SDS011;5212;47.892;16.406;2023-08-30T03:32:28;0.90;;;0.80;;
10333;SDS011;5212;47.892;16.406;2023-08-30T03:34:54;1.00;;;0.80;;
10333;SDS011;5212;47.892;16.406;2023-08-30T03:37:20;1.07;;;0.87;;
10333;SDS011;5212;47.892;16.406;2023-08-30T03:39:46;1.00;;;0.80;;
10333;SDS011;5212;47.892;16.406;2023-08-30T03:42:12;0.80;;;0.57;;
10333;SDS011;5212;47.892;16.406;2023-08-30T03:44:38;1.10;;;0.90;;
10333;SDS011;5212;47.892;16.406;2023-08-30T03:47:04;1.40;;;0.77;;
10333;SDS011;5212;47.892;16.406;2023-08-30T03:49:31;0.90;;;0.70;;
10333;SDS011;5212;47.892;16.406;2023-08-30T03:51:56;0.77;;;0.60;;
10333;SDS011;5212;47.892;16.406;2023-08-30T03:54:23;1.10;;;0.90;;
10333;SDS011;5212;47.892;16.406;2023-08-30T03:56:49;1.00;;;0.80;;
10333;SDS011;5212;47.892;16.406;2023-08-30T03:59:15;0.87;;;0.80;;
10333;SDS011;5212;47.892;16.406;2023-08-30T04:01:41;0.97;;;0.73;;
10333;SDS011;5212;47.892;16.406;2023-08-30T04:04:07;0.63;;;0.60;;
10333;SDS011;5212;47.892;16.406;2023-08-30T04:06:33;0.50;;;0.43;;
10333;SDS011;5212;47.892;16.406;2023-08-30T04:08:59;1.03;;;0.70;;
10333;SDS011;5212;47.892;16.406;2023-08-30T04:11:25;0.60;;;0.60;;
10333;SDS011;5212;47.892;16.406;2023-08-30T04:13:51;0.50;;;0.50;;
10333;SDS011;5212;47.892;16.406;2023-08-30T04:16:18;0.70;;;0.60;;
10333;SDS011;5212;47.892;16.406;2023-08-30T04:18:44;0.70;;;0.60;;
10333;SDS011;5212;47.892;16.406;2023-08-30T04:21:10;0.60;;;0.50;;
10333;SDS011;5212;47.892;16.406;2023-08-30T04:23:36;0.60;;;0.60;;
10333;SDS011;5212;47.892;16.406;2023-08-30T04:26:02;1.00;;;0.60;;
10333;SDS011;5212;47.892;16.406;2023-08-30T04:28:28;0.83;;;0.60;;
10333;SDS011;5212;47.892;16.406;2023-08-30T04:30:54;0.70;;;0.53;;
10333;SDS011;5212;47.892;16.406;2023-08-30T04:33:20;0.70;;;0.57;;
10333;SDS011;5212;47.892;16.406;2023-08-30T04:35:50;0.73;;;0.70;;
10333;SDS011;5212;47.892;16.406;2023-08-30T04:38:16;0.70;;;0.60;;
10333;SDS011;5212;47.892;16.406;2023-08-30T04:40:42;0.80;;;0.60;;
10333;SDS011;5212;47.892;16.406;2023-08-30T04:43:08;1.43;;;1.10;;
10333;SDS011;5212;47.892;16.406;2023-08-30T04:45:34;0.97;;;0.80;;
10333;SDS011;5212;47.892;16.406;2023-08-30T04:48:00;1.07;;;0.90;;
10333;SDS011;5212;47.892;16.406;2023-08-30T04:50:27;0.90;;;0.80;;
10333;SDS011;5212;47.892;16.406;2023-08-30T04:52:53;1.60;;;1.00;;
10333;SDS011;5212;47.892;16.406;2023-08-30T04:55:19;1.20;;;0.93;;
10333;SDS011;5212;47.892;16.406;2023-08-30T04:57:45;1.60;;;1.20;;
10333;SDS011;5212;47.892;16.406;2023-08-30T05:00:13;1.70;;;1.30;;
10333;SDS011;5212;47.892;16.406;2023-08-30T05:02:39;1.33;;;1.10;;
10333;SDS011;5212;47.892;16.406;2023-08-30T05:05:08;3.53;;;1.20;;
10333;SDS011;5212;47.892;16.406;2023-08-30T05:07:34;1.50;;;1.30;;
10333;SDS011;5212;47.892;16.406;2023-08-30T05:10:01;1.73;;;1.20;;
10333;SDS011;5212;47.892;16.406;2023-08-30T05:12:28;1.70;;;1.17;;
10333;SDS011;5212;47.892;16.406;2023-08-30T05:14:54;1.80;;;1.13;;
10333;SDS011;5212;47.892;16.406;2023-08-30T05:17:20;1.40;;;1.23;;
10333;SDS011;5212;47.892;16.406;2023-08-30T05:19:46;1.50;;;0.93;;
10333;SDS011;5212;47.892;16.406;2023-08-30T05:22:12;1.80;;;1.27;;
10333;SDS011;5212;47.892;16.406;2023-08-30T05:24:38;1.50;;;1.03;;
10333;SDS011;5212;47.892;16.406;2023-08-30T05:27:05;1.80;;;1.10;;
10333;SDS011;5212;47.892;16.406;2023-08-30T05:29:32;1.50;;;1.20;;
10333;SDS011;5212;47.892;16.406;2023-08-30T05:31:58;1.43;;;1.07;;
10333;SDS011;5212;47.892;16.406;2023-08-30T05:34:24;1.27;;;0.97;;
10333;SDS011;5212;47.892;16.406;2023-08-30T05:36:52;1.30;;;1.20;;
10333;SDS011;5212;47.892;16.406;2023-08-30T05:39:18;1.17;;;0.93;;
10333;SDS011;5212;47.892;16.406;2023-08-30T05:41:44;1.30;;;1.13;;
10333;SDS011;5212;47.892;16.406;2023-08-30T05:44:11;1.27;;;1.03;;
10333;SDS011;5212;47.892;16.406;2023-08-30T05:46:37;1.37;;;0.90;;
10333;SDS011;5212;47.892;16.406;2023-08-30T05:49:03;1.00;;;0.80;;
10333;SDS011;5212;47.892;16.406;2023-08-30T05:51:29;1.40;;;1.03;;
10333;SDS011;5212;47.892;16.406;2023-08-30T05:53:55;1.43;;;0.97;;
10333;SDS011;5212;47.892;16.406;2023-08-30T05:56:21;1.20;;;1.10;;
10333;SDS011;5212;47.892;16.406;2023-08-30T05:58:47;1.30;;;1.00;;
10333;SDS011;5212;47.892;16.406;2023-08-30T06:01:14;2.17;;;1.00;;
10333;SDS011;5212;47.892;16.406;2023-08-30T06:03:40;1.33;;;1.17;;
10333;SDS011;5212;47.892;16.406;2023-08-30T06:06:06;2.37;;;1.00;;
10333;SDS011;5212;47.892;16.406;2023-08-30T06:08:32;1.07;;;0.97;;
10333;SDS011;5212;47.892;16.406;2023-08-30T06:10:58;1.40;;;1.07;;
10333;SDS011;5212;47.892;16.406;2023-08-30T06:13:24;1.83;;;0.90;;
10333;SDS011;5212;47.892;16.406;2023-08-30T06:15:50;1.23;;;0.90;;
10333;SDS011;5212;47.892;16.406;2023-08-30T06:18:17;1.20;;;0.80;;
10333;SDS011;5212;47.892;16.406;2023-08-30T06:20:43;2.07;;;1.07;;
10333;SDS011;5212;47.892;16.406;2023-08-30T06:23:09;1.10;;;1.00;;
10333;SDS011;5212;47.892;16.406;2023-08-30T06:25:35;1.10;;;0.90;;
10333;SDS011;5212;47.892;16.406;2023-08-30T06:28:01;1.20;;;0.87;;
10333;SDS011;5212;47.892;16.406;2023-08-30T06:30:28;1.40;;;1.10;;
10333;SDS011;5212;47.892;16.406;2023-08-30T06:32:54;1.00;;;0.80;;
10333;SDS011;5212;47.892;16.406;2023-08-30T06:35:21;2.87;;;0.97;;
10333;SDS011;5212;47.892;16.406;2023-08-30T06:37:47;1.40;;;1.03;;
10333;SDS011;5212;47.892;16.406;2023-08-30T06:40:13;1.47;;;1.10;;
10333;SDS011;5212;47.892;16.406;2023-08-30T06:42:40;1.27;;;0.90;;
10333;SDS011;5212;47.892;16.406;2023-08-30T06:45:06;1.00;;;0.90;;
10333;SDS011;5212;47.892;16.406;2023-08-30T06:47:32;1.10;;;1.00;;
10333;SDS011;5212;47.892;16.406;2023-08-30T06:49:58;1.40;;;1.10;;
10333;SDS011;5212;47.892;16.406;2023-08-30T06:52:26;1.20;;;0.90;;
10333;SDS011;5212;47.892;16.406;2023-08-30T06:54:52;1.27;;;0.93;;
10333;SDS011;5212;47.892;16.406;2023-08-30T06:57:18;1.20;;;0.80;;
10333;SDS011;5212;47.892;16.406;2023-08-30T06:59:44;1.60;;;1.00;;
10333;SDS011;5212;47.892;16.406;2023-08-30T07:02:10;0.90;;;0.90;;
10333;SDS011;5212;47.892;16.406;2023-08-30T07:04:36;1.07;;;0.93;;
10333;SDS011;5212;47.892;16.406;2023-08-30T07:07:02;1.33;;;1.10;;
10333;SDS011;5212;47.892;16.406;2023-08-30T07:09:30;1.37;;;1.10;;
10333;SDS011;5212;47.892;16.406;2023-08-30T07:11:58;1.30;;;1.07;;
10333;SDS011;5212;47.892;16.406;2023-08-30T07:14:24;1.57;;;1.20;;
10333;SDS011;5212;47.892;16.406;2023-08-30T07:16:51;1.73;;;1.50;;
10333;SDS011;5212;47.892;16.406;2023-08-30T07:19:17;1.90;;;1.30;;
10333;SDS011;5212;47.892;16.406;2023-08-30T07:21:43;1.80;;;1.17;;
10333;SDS011;5212;47.892;16.406;2023-08-30T07:24:09;1.40;;;1.10;;
10333;SDS011;5212;47.892;16.406;2023-08-30T07:26:36;1.57;;;1.40;;
10333;SDS011;5212;47.892;16.406;2023-08-30T07:29:02;1.67;;;1.20;;
10333;SDS011;5212;47.892;16.406;2023-08-30T07:31:30;1.63;;;1.23;;
10333;SDS011;5212;47.892;16.406;2023-08-30T07:33:56;1.70;;;1.23;;
10333;SDS011;5212;47.892;16.406;2023-08-30T07:36:23;1.47;;;1.10;;
10333;SDS011;5212;47.892;16.406;2023-08-30T07:38:49;1.90;;;1.27;;
10333;SDS011;5212;47.892;16.406;2023-08-30T07:41:15;1.43;;;1.20;;
10333;SDS011;5212;47.892;16.406;2023-08-30T07:43:42;1.37;;;1.10;;
10333;SDS011;5212;47.892;16.406;2023-08-30T07:46:08;1.67;;;0.97;;
10333;SDS011;5212;47.892;16.406;2023-08-30T07:48:34;1.20;;;1.00;;
10333;SDS011;5212;47.892;16.406;2023-08-30T07:51:00;1.30;;;1.20;;
10333;SDS011;5212;47.892;16.406;2023-08-30T07:53:26;2.20;;;1.10;;
10333;SDS011;5212;47.892;16.406;2023-08-30T07:55:52;1.10;;;1.00;;
10333;SDS011;5212;47.892;16.406;2023-08-30T07:58:18;1.00;;;0.90;;
10333;SDS011;5212;47.892;16.406;2023-08-30T08:00:44;1.03;;;0.93;;
10333;SDS011;5212;47.892;16.406;2023-08-30T08:03:10;1.07;;;0.97;;
10333;SDS011;5212;47.892;16.406;2023-08-30T08:05:37;1.07;;;0.97;;
10333;SDS011;5212;47.892;16.406;2023-08-30T08:08:03;1.00;;;0.90;;
10333;SDS011;5212;47.892;16.406;2023-08-30T08:10:31;1.07;;;0.97;;
10333;SDS011;5212;47.892;16.406;2023-08-30T08:12:58;1.30;;;1.00;;
10333;SDS011;5212;47.892;16.406;2023-08-30T08:15:24;1.00;;;0.80;;
10333;SDS011;5212;47.892;16.406;2023-08-30T08:17:50;1.00;;;0.90;;
10333;SDS011;5212;47.892;16.406;2023-08-30T08:20:17;0.90;;;0.80;;
10333;SDS011;5212;47.892;16.406;2023-08-30T08:22:43;1.10;;;1.00;;
10333;SDS011;5212;47.892;16.406;2023-08-30T08:25:09;0.80;;;0.80;;
10333;SDS011;5212;47.892;16.406;2023-08-30T08:27:35;0.97;;;0.80;;
10333;SDS011;5212;47.892;16.406;2023-08-30T08:30:01;1.00;;;0.90;;
10333;SDS011;5212;47.892;16.406;2023-08-30T08:32:29;0.70;;;0.70;;
10333;SDS011;5212;47.892;16.406;2023-08-30T08:34:56;0.80;;;0.80;;
10333;SDS011;5212;47.892;16.406;2023-08-30T08:37:22;0.80;;;0.70;;
10333;SDS011;5212;47.892;16.406;2023-08-30T08:39:48;1.10;;;0.90;;
10333;SDS011;5212;47.892;16.406;2023-08-30T08:42:17;0.80;;;0.70;;
10333;SDS011;5212;47.892;16.406;2023-08-30T08:44:44;0.70;;;0.70;;
10333;SDS011;5212;47.892;16.406;2023-08-30T08:47:12;0.97;;;0.80;;
10333;SDS011;5212;47.892;16.406;2023-08-30T08:49:39;0.90;;;0.70;;
10333;SDS011;5212;47.892;16.406;2023-08-30T08:52:06;1.20;;;0.90;;
10333;SDS011;5212;47.892;16.406;2023-08-30T08:54:33;0.60;;;0.60;;
10333;SDS011;5212;47.892;16.406;2023-08-30T08:56:59;0.80;;;0.70;;
10333;SDS011;5212;47.892;16.406;2023-08-30T08:59:25;0.80;;;0.70;;
10333;SDS011;5212;47.892;16.406;2023-08-30T09:01:51;1.10;;;0.70;;
10333;SDS011;5212;47.892;16.406;2023-08-30T09:04:18;0.77;;;0.70;;
10333;SDS011;5212;47.892;16.406;2023-08-30T09:06:44;0.67;;;0.60;;
10333;SDS011;5212;47.892;16.406;2023-08-30T09:09:11;1.10;;;0.90;;
10333;SDS011;5212;47.892;16.406;2023-08-30T09:11:37;0.60;;;0.60;;
10333;SDS011;5212;47.892;16.406;2023-08-30T09:14:05;1.03;;;0.70;;
10333;SDS011;5212;47.892;16.406;2023-08-30T09:16:31;1.47;;;0.60;;
10333;SDS011;5212;47.892;16.406;2023-08-30T09:18:58;0.70;;;0.63;;
10333;SDS011;5212;47.892;16.406;2023-08-30T09:21:24;0.60;;;0.60;;
10333;SDS011;5212;47.892;16.406;2023-08-30T09:23:56;0.90;;;0.67;;
10333;SDS011;5212;47.892;16.406;2023-08-30T09:26:23;1.17;;;0.77;;
10333;SDS011;5212;47.892;16.406;2023-08-30T09:28:50;0.80;;;0.70;;
10333;SDS011;5212;47.892;16.406;2023-08-30T09:31:19;1.00;;;0.70;;
10333;SDS011;5212;47.892;16.406;2023-08-30T09:33:45;1.07;;;0.80;;
10333;SDS011;5212;47.892;16.406;2023-08-30T09:36:13;0.80;;;0.70;;
10333;SDS011;5212;47.892;16.406;2023-08-30T09:38:39;0.80;;;0.80;;
10333;SDS011;5212;47.892;16.406;2023-08-30T09:41:05;0.70;;;0.70;;
10333;SDS011;5212;47.892;16.406;2023-08-30T09:43:33;2.07;;;0.90;;
10333;SDS011;5212;47.892;16.406;2023-08-30T09:46:02;0.90;;;0.80;;
10333;SDS011;5212;47.892;16.406;2023-08-30T09:48:28;1.00;;;0.80;;
10333;SDS011;5212;47.892;16.406;2023-08-30T09:50:54;0.60;;;0.60;;
10333;SDS011;5212;47.892;16.406;2023-08-30T09:53:25;1.00;;;0.80;;
10333;SDS011;5212;47.892;16.406;2023-08-30T09:55:52;0.70;;;0.70;;
10333;SDS011;5212;47.892;16.406;2023-08-30T09:58:18;0.70;;;0.60;;
10333;SDS011;5212;47.892;16.406;2023-08-30T10:00:47;0.67;;;0.60;;
10333;SDS011;5212;47.892;16.406;2023-08-30T10:03:13;2.33;;;0.90;;
10333;SDS011;5212;47.892;16.406;2023-08-30T10:05:40;1.30;;;0.80;;
10333;SDS011;5212;47.892;16.406;2023-08-30T10:08:06;0.70;;;0.60;;
10333;SDS011;5212;47.892;16.406;2023-08-30T10:10:34;0.60;;;0.50;;
10333;SDS011;5212;47.892;16.406;2023-08-30T10:13:00;0.60;;;0.60;;
10333;SDS011;5212;47.892;16.406;2023-08-30T10:15:27;0.70;;;0.60;;
10333;SDS011;5212;47.892;16.406;2023-08-30T10:17:57;0.63;;;0.60;;
10333;SDS011;5212;47.892;16.406;2023-08-30T10:20:23;0.60;;;0.60;;
10333;SDS011;5212;47.892;16.406;2023-08-30T10:22:50;0.60;;;0.50;;
10333;SDS011;5212;47.892;16.406;2023-08-30T10:25:17;0.70;;;0.67;;
10333;SDS011;5212;47.892;16.406;2023-08-30T10:27:46;1.00;;;0.80;;
10333;SDS011;5212;47.892;16.406;2023-08-30T10:30:13;0.97;;;0.70;;
10333;SDS011;5212;47.892;16.406;2023-08-30T10:32:40;0.70;;;0.60;;
10333;SDS011;5212;47.892;16.406;2023-08-30T10:35:06;1.03;;;0.80;;
10333;SDS011;5212;47.892;16.406;2023-08-30T10:37:36;0.77;;;0.60;;
10333;SDS011;5212;47.892;16.406;2023-08-30T10:40:02;0.63;;;0.63;;
10333;SDS011;5212;47.892;16.406;2023-08-30T10:42:29;0.70;;;0.60;;
10333;SDS011;5212;47.892;16.406;2023-08-30T10:44:56;0.60;;;0.53;;
10333;SDS011;5212;47.892;16.406;2023-08-30T10:47:23;0.70;;;0.60;;
10333;SDS011;5212;47.892;16.406;2023-08-30T10:49:53;0.60;;;0.50;;
10333;SDS011;5212;47.892;16.406;2023-08-30T10:52:19;0.90;;;0.70;;
10333;SDS011;5212;47.892;16.406;2023-08-30T10:54:45;0.80;;;0.60;;
10333;SDS011;5212;47.892;16.406;2023-08-30T10:57:15;0.70;;;0.60;;
10333;SDS011;5212;47.892;16.406;2023-08-30T11:02:34;1.00;;;0.80;;
10333;SDS011;5212;47.892;16.406;2023-08-30T11:05:02;1.00;;;0.90;;
10333;SDS011;5212;47.892;16.406;2023-08-30T11:07:29;0.80;;;0.80;;
10333;SDS011;5212;47.892;16.406;2023-08-30T11:09:55;1.20;;;0.80;;
10333;SDS011;5212;47.892;16.406;2023-08-30T11:12:23;1.20;;;0.70;;
10333;SDS011;5212;47.892;16.406;2023-08-30T11:14:51;1.10;;;0.90;;
10333;SDS011;5212;47.892;16.406;2023-08-30T11:17:17;0.80;;;0.70;;
10333;SDS011;5212;47.892;16.406;2023-08-30T11:19:43;1.00;;;0.80;;
10333;SDS011;5212;47.892;16.406;2023-08-30T11:22:09;0.90;;;0.80;;
10333;SDS011;5212;47.892;16.406;2023-08-30T11:24:36;0.80;;;0.80;;
10333;SDS011;5212;47.892;16.406;2023-08-30T11:27:02;1.00;;;0.90;;
10333;SDS011;5212;47.892;16.406;2023-08-30T11:29:28;0.83;;;0.83;;
10333;SDS011;5212;47.892;16.406;2023-08-30T11:31:54;1.00;;;0.83;;
10333;SDS011;5212;47.892;16.406;2023-08-30T11:34:20;1.73;;;0.93;;
10333;SDS011;5212;47.892;16.406;2023-08-30T11:36:47;0.80;;;0.80;;
10333;SDS011;5212;47.892;16.406;2023-08-30T11:39:13;1.17;;;0.90;;
10333;SDS011;5212;47.892;16.406;2023-08-30T11:41:40;1.57;;;0.73;;
10333;SDS011;5212;47.892;16.406;2023-08-30T11:44:07;1.20;;;1.00;;
10333;SDS011;5212;47.892;16.406;2023-08-30T11:46:33;0.80;;;0.80;;
10333;SDS011;5212;47.892;16.406;2023-08-30T11:48:59;1.17;;;0.90;;
10333;SDS011;5212;47.892;16.406;2023-08-30T11:51:25;1.20;;;1.00;;
10333;SDS011;5212;47.892;16.406;2023-08-30T11:53:52;0.90;;;0.80;;
10333;SDS011;5212;47.892;16.406;2023-08-30T11:56:19;1.00;;;0.90;;
10333;SDS011;5212;47.892;16.406;2023-08-30T11:58:46;1.10;;;1.00;;
10333;SDS011;5212;47.892;16.406;2023-08-30T12:01:12;1.30;;;1.00;;
10333;SDS011;5212;47.892;16.406;2023-08-30T12:03:38;0.93;;;0.90;;
10333;SDS011;5212;47.892;16.406;2023-08-30T12:06:10;2.70;;;0.80;;
10333;SDS011;5212;47.892;16.406;2023-08-30T12:08:37;1.00;;;0.90;;
10333;SDS011;5212;47.892;16.406;2023-08-30T12:11:03;0.80;;;0.80;;
10333;SDS011;5212;47.892;16.406;2023-08-30T12:13:29;1.20;;;0.80;;
10333;SDS011;5212;47.892;16.406;2023-08-30T12:15:58;1.00;;;0.90;;
10333;SDS011;5212;47.892;16.406;2023-08-30T12:18:25;1.30;;;0.93;;
10333;SDS011;5212;47.892;16.406;2023-08-30T12:20:53;0.87;;;0.80;;
10333;SDS011;5212;47.892;16.406;2023-08-30T12:23:20;1.10;;;0.80;;
10333;SDS011;5212;47.892;16.406;2023-08-30T12:25:56;1.23;;;1.03;;
10333;SDS011;5212;47.892;16.406;2023-08-30T12:28:22;1.37;;;0.90;;
10333;SDS011;5212;47.892;16.406;2023-08-30T12:30:48;1.50;;;1.00;;
10333;SDS011;5212;47.892;16.406;2023-08-30T12:33:16;1.10;;;1.00;;
10333;SDS011;5212;47.892;16.406;2023-08-30T12:35:43;0.80;;;0.80;;
10333;SDS011;5212;47.892;16.406;2023-08-30T12:38:09;1.00;;;0.90;;
10333;SDS011;5212;47.892;16.406;2023-08-30T12:40:35;1.37;;;1.00;;
10333;SDS011;5212;47.892;16.406;2023-08-30T12:43:01;0.93;;;0.80;;
10333;SDS011;5212;47.892;16.406;2023-08-30T12:45:27;0.83;;;0.80;;
10333;SDS011;5212;47.892;16.406;2023-08-30T12:47:53;1.00;;;0.90;;
10333;SDS011;5212;47.892;16.406;2023-08-30T12:50:21;1.03;;;0.80;;
10333;SDS011;5212;47.892;16.406;2023-08-30T12:52:47;2.37;;;0.90;;
10333;SDS011;5212;47.892;16.406;2023-08-30T12:55:13;3.00;;;1.10;;
10333;SDS011;5212;47.892;16.406;2023-08-30T12:57:40;1.73;;;1.00;;
10333;SDS011;5212;47.892;16.406;2023-08-30T13:00:06;1.47;;;1.00;;
10333;SDS011;5212;47.892;16.406;2023-08-30T13:02:33;1.57;;;1.10;;
10333;SDS011;5212;47.892;16.406;2023-08-30T13:04:59;1.30;;;1.00;;
10333;SDS011;5212;47.892;16.406;2023-08-30T13:07:26;1.17;;;0.93;;
10333;SDS011;5212;47.892;16.406;2023-08-30T13:09:52;1.00;;;0.90;;
10333;SDS011;5212;47.892;16.406;2023-08-30T13:12:18;0.97;;;0.87;;
10333;SDS011;5212;47.892;16.406;2023-08-30T13:14:44;1.10;;;0.80;;
10333;SDS011;5212;47.892;16.406;2023-08-30T13:17:10;1.50;;;1.00;;
10333;SDS011;5212;47.892;16.406;2023-08-30T13:19:36;2.57;;;0.77;;
10333;SDS011;5212;47.892;16.406;2023-08-30T13:22:02;0.90;;;0.80;;
10333;SDS011;5212;47.892;16.406;2023-08-30T13:24:29;0.93;;;0.80;;
10333;SDS011;5212;47.892;16.406;2023-08-30T13:26:57;1.60;;;1.20;;
10333;SDS011;5212;47.892;16.406;2023-08-30T13:29:23;1.63;;;1.00;;
10333;SDS011;5212;47.892;16.406;2023-08-30T13:31:49;1.00;;;0.90;;
10333;SDS011;5212;47.892;16.406;2023-08-30T13:34:15;1.00;;;0.90;;
10333;SDS011;5212;47.892;16.406;2023-08-30T13:36:41;1.23;;;1.03;;
10333;SDS011;5212;47.892;16.406;2023-08-30T13:39:07;1.00;;;0.83;;
10333;SDS011;5212;47.892;16.406;2023-08-30T13:41:34;1.20;;;1.10;;
10333;SDS011;5212;47.892;16.406;2023-08-30T13:44:01;0.70;;;0.70;;
10333;SDS011;5212;47.892;16.406;2023-08-30T13:46:28;1.00;;;0.87;;
10333;SDS011;5212;47.892;16.406;2023-08-30T13:48:54;1.00;;;0.90;;
10333;SDS011;5212;47.892;16.406;2023-08-30T13:51:21;1.17;;;1.07;;
10333;SDS011;5212;47.892;16.406;2023-08-30T13:53:47;1.07;;;0.90;;
10333;SDS011;5212;47.892;16.406;2023-08-30T13:56:13;1.57;;;0.90;;
10333;SDS011;5212;47.892;16.406;2023-08-30T13:58:40;1.00;;;0.90;;
10333;SDS011;5212;47.892;16.406;2023-08-30T14:01:06;1.00;;;0.90;;
10333;SDS011;5212;47.892;16.406;2023-08-30T14:03:32;1.23;;;0.90;;
10333;SDS011;5212;47.892;16.406;2023-08-30T14:05:58;0.90;;;0.90;;
10333;SDS011;5212;47.892;16.406;2023-08-30T14:08:24;1.33;;;1.00;;
10333;SDS011;5212;47.892;16.406;2023-08-30T14:10:50;0.93;;;0.87;;
10333;SDS011;5212;47.892;16.406;2023-08-30T14:13:17;1.23;;;1.00;;
10333;SDS011;5212;47.892;16.406;2023-08-30T14:15:43;1.10;;;1.00;;
10333;SDS011;5212;47.892;16.406;2023-08-30T14:18:09;1.27;;;1.00;;
10333;SDS011;5212;47.892;16.406;2023-08-30T14:20:36;1.17;;;1.00;;
10333;SDS011;5212;47.892;16.406;2023-08-30T14:23:02;1.00;;;0.90;;
10333;SDS011;5212;47.892;16.406;2023-08-30T14:25:28;1.20;;;0.90;;
10333;SDS011;5212;47.892;16.406;2023-08-30T14:27:54;2.00;;;1.10;;
10333;SDS011;5212;47.892;16.406;2023-08-30T14:30:20;0.80;;;0.80;;
10333;SDS011;5212;47.892;16.406;2023-08-30T14:32:47;1.13;;;0.90;;
10333;SDS011;5212;47.892;16.406;2023-08-30T14:35:13;1.20;;;1.10;;
10333;SDS011;5212;47.892;16.406;2023-08-30T14:37:39;1.20;;;1.10;;
10333;SDS011;5212;47.892;16.406;2023-08-30T14:40:06;1.33;;;1.20;;
10333;SDS011;5212;47.892;16.406;2023-08-30T14:42:33;2.80;;;1.03;;
10333;SDS011;5212;47.892;16.406;2023-08-30T14:44:59;1.60;;;1.10;;
10333;SDS011;5212;47.892;16.406;2023-08-30T14:47:25;1.30;;;1.07;;